createdAt,value
2023-06-07T00:05:00.722Z,16.75
2023-06-07T00:07:28.200Z,17.98
2023-06-07T00:09:55.704Z,18.40
2023-06-07T00:12:23.155Z,18.92
2023-06-07T00:14:51.002Z,18.67
2023-06-07T00:19:45.827Z,16.75
2023-06-07T00:22:14.156Z,17.42
2023-06-07T00:24:41.792Z,18.80
2023-06-07T00:27:09.293Z,19.42
2023-06-07T00:29:37.779Z,18.08
2023-06-07T00:32:06.158Z,17.15
2023-06-07T00:34:33.675Z,19.95
2023-06-07T00:37:01.183Z,18.42
2023-06-07T00:39:29.752Z,19.58
2023-06-07T00:41:57.681Z,18.30
2023-06-07T00:44:25.161Z,18.33
2023-06-07T00:46:54.842Z,17.95
2023-06-07T00:49:24.097Z,17.65
2023-06-07T00:51:52.189Z,18.38
2023-06-07T00:54:21.034Z,18.60
2023-06-07T00:56:51.762Z,19.20
2023-06-07T00:59:21.242Z,20.08
2023-06-07T01:01:53.746Z,19.95
2023-06-07T01:04:22.402Z,20.55
2023-06-07T01:06:50.641Z,21.48
2023-06-07T01:09:18.914Z,22.10
2023-06-07T01:11:51.060Z,22.25
2023-06-07T01:14:20.804Z,21.40
2023-06-07T01:16:52.019Z,23.40
2023-06-07T01:19:24.032Z,23.45
2023-06-07T01:21:56.237Z,22.58
2023-06-07T01:24:23.750Z,23.10
2023-06-07T01:26:58.382Z,25.00
2023-06-07T01:29:31.452Z,22.75
2023-06-07T01:32:01.612Z,23.20
2023-06-07T01:34:29.952Z,24.02
2023-06-07T01:36:57.910Z,25.48
2023-06-07T01:41:54.060Z,22.38
2023-06-07T01:46:49.225Z,23.33
2023-06-07T01:49:22.639Z,23.58
2023-06-07T01:51:51.212Z,23.38
2023-06-07T01:54:20.973Z,22.42
2023-06-07T01:56:52.637Z,24.10
2023-06-07T01:59:20.106Z,24.63
2023-06-07T02:02:07.668Z,24.35
2023-06-07T02:04:42.252Z,26.02
2023-06-07T02:07:17.478Z,25.52
2023-06-07T02:09:49.051Z,26.50
2023-06-07T02:12:17.023Z,26.40
2023-06-07T02:14:47.296Z,25.85
2023-06-07T02:17:14.757Z,26.08
2023-06-07T02:19:44.484Z,25.80
2023-06-07T02:22:14.866Z,26.70
2023-06-07T02:24:42.504Z,27.20
2023-06-07T02:27:12.867Z,28.70
2023-06-07T02:29:42.808Z,26.05
2023-06-07T02:32:10.336Z,27.45
2023-06-07T02:34:38.040Z,27.65
2023-06-07T02:37:05.868Z,29.25
2023-06-07T02:42:01.442Z,26.55
2023-06-07T02:44:29.456Z,26.13
2023-06-07T02:46:58.830Z,26.85
2023-06-07T02:49:26.977Z,25.95
2023-06-07T02:51:56.139Z,27.65
2023-06-07T02:54:23.882Z,26.95
2023-06-07T02:56:51.422Z,27.17
2023-06-07T02:59:19.427Z,25.95
2023-06-07T03:01:47.623Z,26.50
2023-06-07T03:04:19.881Z,25.73
2023-06-07T03:06:53.456Z,26.40
2023-06-07T03:09:36.318Z,24.70
2023-06-07T03:12:04.255Z,26.60
2023-06-07T03:14:39.478Z,27.00
2023-06-07T03:17:10.092Z,27.40
2023-06-07T03:19:39.126Z,26.92
2023-06-07T03:22:07.754Z,26.02
2023-06-07T03:24:40.386Z,26.23
2023-06-07T03:27:09.841Z,24.85
2023-06-07T03:29:39.432Z,24.90
2023-06-07T03:32:08.537Z,24.20
2023-06-07T03:34:42.948Z,26.52
2023-06-07T03:37:11.250Z,23.90
2023-06-07T03:39:39.167Z,24.67
2023-06-07T03:42:09.264Z,24.17
2023-06-07T03:44:39.451Z,23.67
2023-06-07T03:49:34.679Z,22.05
2023-06-07T03:52:04.073Z,22.90
2023-06-07T03:54:32.865Z,22.77
2023-06-07T03:57:07.093Z,22.48
2023-06-07T03:59:37.926Z,23.20
2023-06-07T04:02:06.650Z,23.23
2023-06-07T04:04:35.003Z,23.42
2023-06-07T04:07:04.214Z,21.77
2023-06-07T04:09:31.789Z,22.88
2023-06-07T04:11:59.982Z,22.20
2023-06-07T04:14:28.884Z,22.60
2023-06-07T04:16:56.988Z,22.55
2023-06-07T04:19:25.342Z,22.02
2023-06-07T04:21:54.800Z,22.67
2023-06-07T04:24:24.321Z,23.13
2023-06-07T04:29:27.131Z,20.88
2023-06-07T04:31:58.405Z,20.63
2023-06-07T04:34:30.666Z,20.80
2023-06-07T04:36:58.803Z,20.90
2023-06-07T04:39:27.223Z,20.77
2023-06-07T04:41:55.729Z,20.05
2023-06-07T04:44:31.505Z,20.30
2023-06-07T04:47:10.102Z,19.50
2023-06-07T04:49:40.600Z,19.02
2023-06-07T04:54:38.149Z,18.42
2023-06-07T04:57:10.599Z,18.80
2023-06-07T04:59:44.300Z,19.48
2023-06-07T05:02:18.059Z,18.40
2023-06-07T05:04:47.467Z,18.52
2023-06-07T05:07:16.838Z,19.20
2023-06-07T05:09:50.321Z,18.60
2023-06-07T05:12:20.227Z,18.70
2023-06-07T05:14:47.762Z,19.27
2023-06-07T05:17:20.644Z,18.38
2023-06-07T05:19:51.330Z,17.98
2023-06-07T05:24:47.043Z,19.50
2023-06-07T05:27:15.777Z,20.45
2023-06-07T05:29:43.447Z,19.95
2023-06-07T05:32:11.128Z,20.17
2023-06-07T05:34:39.611Z,19.23
2023-06-07T05:37:08.217Z,18.52
2023-06-07T05:39:36.274Z,18.10
2023-06-07T05:42:03.840Z,18.38
2023-06-07T05:44:31.439Z,19.75
2023-06-07T05:46:59.129Z,19.40
2023-06-07T05:49:27.053Z,19.02
2023-06-07T05:51:54.494Z,18.20
2023-06-07T05:54:22.418Z,20.00
2023-06-07T05:56:50.972Z,20.30
2023-06-07T05:59:19.525Z,18.70
2023-06-07T06:01:47.657Z,17.70
2023-06-07T06:04:16.692Z,17.05
2023-06-07T06:06:44.199Z,18.95
2023-06-07T06:09:11.872Z,19.38
2023-06-07T06:11:39.425Z,19.98
2023-06-07T06:14:06.876Z,20.08
2023-06-07T06:16:34.568Z,19.58
2023-06-07T06:19:02.107Z,19.88
2023-06-07T06:21:29.886Z,20.10
2023-06-07T06:26:26.543Z,18.48
2023-06-07T06:28:54.137Z,20.20
2023-06-07T06:31:21.830Z,20.58
2023-06-07T06:36:21.840Z,18.90
2023-06-07T06:38:49.509Z,19.60
2023-06-07T06:41:17.636Z,19.77
2023-06-07T06:43:45.716Z,19.65
2023-06-07T06:46:17.330Z,20.77
2023-06-07T06:48:55.804Z,19.95
2023-06-07T06:51:30.707Z,18.80
2023-06-07T06:58:53.590Z,17.98
2023-06-07T07:01:21.104Z,17.65
2023-06-07T07:03:48.898Z,17.55
2023-06-07T07:08:46.030Z,18.35
2023-06-07T07:11:13.652Z,18.25
2023-06-07T07:13:41.059Z,18.88
2023-06-07T07:16:08.615Z,20.02
2023-06-07T07:18:36.172Z,20.80
2023-06-07T07:21:04.335Z,20.60
2023-06-07T07:23:32.139Z,21.35
2023-06-07T07:28:29.315Z,20.17
2023-06-07T07:35:52.433Z,20.90
2023-06-07T07:38:19.880Z,21.77
2023-06-07T07:40:48.489Z,18.55
2023-06-07T07:43:16.497Z,17.63
2023-06-07T07:45:44.113Z,20.35
2023-06-07T07:48:11.840Z,18.80
2023-06-07T07:53:09.070Z,18.60
2023-06-07T07:55:36.899Z,17.92
2023-06-07T08:00:31.760Z,19.30
2023-06-07T08:02:59.471Z,18.45
2023-06-07T08:05:28.242Z,17.45
2023-06-07T08:07:56.168Z,18.15
2023-06-07T08:10:23.738Z,17.52
2023-06-07T08:12:51.257Z,15.80
2023-06-07T08:15:18.912Z,14.82
2023-06-07T08:17:46.500Z,14.05
2023-06-07T08:20:14.053Z,14.13
2023-06-07T08:22:43.315Z,14.00
2023-06-07T08:25:10.834Z,15.73
2023-06-07T08:27:39.262Z,14.50
2023-06-07T08:30:07.858Z,16.50
2023-06-07T08:32:37.701Z,17.27
2023-06-07T08:35:05.940Z,16.75
2023-06-07T08:37:33.758Z,17.90
2023-06-07T08:42:28.714Z,14.60
2023-06-07T08:47:26.567Z,16.05
2023-06-07T08:49:58.257Z,15.95
2023-06-07T08:52:26.607Z,14.52
2023-06-07T08:54:59.729Z,13.48
2023-06-07T08:57:32.743Z,15.73
2023-06-07T09:00:01.776Z,14.32
2023-06-07T09:02:29.828Z,14.80
2023-06-07T09:04:57.493Z,14.95
2023-06-07T09:07:25.026Z,14.07
2023-06-07T09:09:52.503Z,13.85
2023-06-07T09:12:20.199Z,13.35
2023-06-07T09:14:48.430Z,13.70
2023-06-07T09:17:16.280Z,13.23
2023-06-07T09:19:44.060Z,12.30
2023-06-07T09:25:09.398Z,13.05
2023-06-07T09:27:36.962Z,12.75
2023-06-07T09:30:07.033Z,11.63
2023-06-07T09:32:38.909Z,12.30
2023-06-07T09:35:14.606Z,12.07
2023-06-07T09:37:54.117Z,12.35
2023-06-07T09:40:23.117Z,12.80
2023-06-07T09:43:00.775Z,13.45
2023-06-07T09:45:29.472Z,12.48
2023-06-07T09:48:05.758Z,12.07
2023-06-07T09:50:33.538Z,12.82
2023-06-07T09:55:32.778Z,12.98
2023-06-07T09:58:00.319Z,14.20
2023-06-07T10:00:29.062Z,11.90
2023-06-07T10:03:07.353Z,12.70
2023-06-07T10:05:35.671Z,11.63
2023-06-07T10:08:03.673Z,12.40
2023-06-07T10:10:32.318Z,12.15
2023-06-07T10:13:03.565Z,12.35
2023-06-07T10:15:37.031Z,12.60
2023-06-07T10:18:25.566Z,12.35
2023-06-07T10:21:04.800Z,12.02
2023-06-07T10:23:58.901Z,11.63
2023-06-07T10:26:35.659Z,11.98
2023-06-07T10:29:12.804Z,10.63
2023-06-07T10:31:49.809Z,10.20
2023-06-07T10:34:19.695Z,10.25
2023-06-07T10:36:47.566Z,11.52
2023-06-07T10:39:15.810Z,11.30
2023-06-07T10:41:44.140Z,10.77
2023-06-07T10:44:13.973Z,10.88
2023-06-07T10:46:41.688Z,11.63
2023-06-07T10:52:00.703Z,9.60
2023-06-07T10:54:32.942Z,10.15
2023-06-07T10:57:01.409Z,11.20
2023-06-07T10:59:29.636Z,11.90
2023-06-07T11:02:50.384Z,11.68
2023-06-07T11:06:00.407Z,12.07
2023-06-07T11:08:37.994Z,10.60
2023-06-07T11:13:40.058Z,11.23
2023-06-07T11:16:30.945Z,11.48
2023-06-07T11:19:09.342Z,11.02
2023-06-07T11:22:17.394Z,11.52
2023-06-07T11:24:49.605Z,11.95
2023-06-07T11:27:20.475Z,11.45
2023-06-07T11:29:48.366Z,10.80
2023-06-07T11:32:17.132Z,11.32
2023-06-07T11:34:57.163Z,10.88
2023-06-07T11:37:25.709Z,10.85
2023-06-07T11:39:59.899Z,9.65
2023-06-07T11:42:27.309Z,9.90
2023-06-07T11:44:54.861Z,9.98
2023-06-07T11:49:49.950Z,10.90
2023-06-07T11:52:19.814Z,11.82
2023-06-07T11:54:47.401Z,10.50
2023-06-07T11:57:14.998Z,10.75
2023-06-07T12:02:13.334Z,10.02
2023-06-07T12:04:43.765Z,9.73
2023-06-07T12:07:21.385Z,10.25
2023-06-07T12:09:50.635Z,7.97
2023-06-07T12:12:18.118Z,8.13
2023-06-07T12:14:48.314Z,8.15
2023-06-07T12:17:15.893Z,7.38
2023-06-07T12:19:43.875Z,8.02
2023-06-07T12:22:11.520Z,7.15
2023-06-07T12:24:39.493Z,7.57
2023-06-07T12:27:07.624Z,7.45
2023-06-07T12:29:35.290Z,6.30
2023-06-07T12:34:34.293Z,7.10
2023-06-07T12:37:02.827Z,7.68
2023-06-07T12:39:30.835Z,7.80
2023-06-07T12:41:58.630Z,8.30
2023-06-07T12:44:26.239Z,7.70
2023-06-07T12:46:53.812Z,7.75
2023-06-07T12:51:49.106Z,7.53
2023-06-07T12:54:16.792Z,7.78
2023-06-07T13:01:39.917Z,8.05
2023-06-07T13:04:07.535Z,7.97
2023-06-07T13:06:35.377Z,7.78
2023-06-07T13:09:10.337Z,8.23
2023-06-07T13:11:41.247Z,8.25
2023-06-07T13:14:09.274Z,7.88
2023-06-07T13:16:36.974Z,8.10
2023-06-07T13:19:04.964Z,8.27
2023-06-07T13:21:32.990Z,7.82
2023-06-07T13:24:00.558Z,7.95
2023-06-07T13:28:55.583Z,8.43
2023-06-07T13:31:23.224Z,7.97
2023-06-07T13:36:18.295Z,8.13
2023-06-07T13:38:46.016Z,7.95
2023-06-07T13:41:13.570Z,7.97
2023-06-07T13:46:16.754Z,8.48
2023-06-07T13:48:44.228Z,8.38
2023-06-07T13:53:42.678Z,7.50
2023-06-07T13:56:11.242Z,8.20
2023-06-07T13:58:39.211Z,8.68
2023-06-07T14:01:07.010Z,8.32
2023-06-07T14:03:36.120Z,8.32
2023-06-07T14:06:04.164Z,8.95
2023-06-07T14:08:32.425Z,9.13
2023-06-07T14:11:01.624Z,8.05
2023-06-07T14:13:29.775Z,8.68
2023-06-07T14:15:57.553Z,8.80
2023-06-07T14:18:26.929Z,8.02
2023-06-07T14:20:54.489Z,7.78
2023-06-07T14:23:22.112Z,7.82
2023-06-07T14:28:19.220Z,7.43
2023-06-07T14:30:47.928Z,8.88
2023-06-07T14:33:15.547Z,8.10
2023-06-07T14:38:10.641Z,8.45
2023-06-07T14:40:38.249Z,8.40
2023-06-07T14:43:05.710Z,7.88
2023-06-07T14:45:33.355Z,8.13
2023-06-07T14:50:31.919Z,7.75
2023-06-07T14:53:03.078Z,6.80
2023-06-07T14:55:30.565Z,6.70
2023-06-07T14:58:01.615Z,6.57
2023-06-07T15:00:32.632Z,6.50
2023-06-07T15:03:00.464Z,6.50
2023-06-07T15:05:28.501Z,5.97
2023-06-07T15:07:57.113Z,6.60
2023-06-07T15:10:24.689Z,7.30
2023-06-07T15:12:52.517Z,6.45
2023-06-07T15:15:20.059Z,7.55
2023-06-07T15:17:49.425Z,7.43
2023-06-07T15:20:19.063Z,7.43
2023-06-07T15:22:46.434Z,7.75
2023-06-07T15:25:14.375Z,7.50
2023-06-07T15:27:41.854Z,8.80
2023-06-07T15:30:09.596Z,7.53
2023-06-07T15:32:54.563Z,8.55
2023-06-07T15:35:22.390Z,7.47
2023-06-07T15:37:50.226Z,7.65
2023-06-07T15:40:18.268Z,7.63
2023-06-07T15:42:45.763Z,7.40
2023-06-07T15:45:13.233Z,8.60
2023-06-07T15:47:41.007Z,8.68
2023-06-07T15:50:09.053Z,8.45
2023-06-07T15:52:36.542Z,9.00
2023-06-07T15:55:05.596Z,8.68
2023-06-07T15:57:33.093Z,8.30
2023-06-07T16:00:00.596Z,8.13
2023-06-07T16:02:29.046Z,8.70
2023-06-07T16:04:56.839Z,8.70
2023-06-07T16:07:41.673Z,8.50
2023-06-07T16:10:15.766Z,8.68
2023-06-07T16:12:44.034Z,10.07
2023-06-07T16:17:39.523Z,8.98
2023-06-07T16:22:36.035Z,9.93
2023-06-07T16:25:03.668Z,10.57
2023-06-07T16:27:33.306Z,9.70
2023-06-07T16:30:01.152Z,9.80
2023-06-07T16:32:39.182Z,10.50
2023-06-07T16:35:07.801Z,10.10
2023-06-07T16:40:02.862Z,10.77
2023-06-07T16:44:58.714Z,10.82
2023-06-07T16:49:56.006Z,10.68
2023-06-07T16:52:23.726Z,10.15
2023-06-07T16:54:51.243Z,11.63
2023-06-07T16:57:18.731Z,11.77
2023-06-07T16:59:46.311Z,11.48
2023-06-07T17:02:15.124Z,11.57
2023-06-07T17:04:42.860Z,11.85
2023-06-07T17:07:10.419Z,12.27
2023-06-07T17:09:37.972Z,11.50
2023-06-07T17:12:06.923Z,12.15
2023-06-07T17:14:34.578Z,12.13
2023-06-07T17:17:10.582Z,11.23
2023-06-07T17:19:38.463Z,11.02
2023-06-07T17:22:07.294Z,11.48
2023-06-07T17:24:34.813Z,10.65
2023-06-07T17:27:02.382Z,10.60
2023-06-07T17:29:30.655Z,10.48
2023-06-07T17:31:58.377Z,9.50
2023-06-07T17:34:25.932Z,9.00
2023-06-07T17:36:53.792Z,8.98
2023-06-07T17:39:22.843Z,9.45
2023-06-07T17:41:50.560Z,8.73
2023-06-07T17:44:18.796Z,8.88
2023-06-07T17:46:47.297Z,8.77
2023-06-07T17:49:15.621Z,8.57
2023-06-07T17:51:43.337Z,8.13
2023-06-07T17:59:06.235Z,8.88
2023-06-07T18:01:33.804Z,9.88
2023-06-07T18:04:06.970Z,9.52
2023-06-07T18:06:34.643Z,9.77
2023-06-07T18:09:02.203Z,9.52
2023-06-07T18:11:29.654Z,9.65
2023-06-07T18:13:57.124Z,10.07
2023-06-07T18:16:24.588Z,10.90
2023-06-07T18:18:52.172Z,10.63
2023-06-07T18:21:19.805Z,10.27
2023-06-07T18:23:47.526Z,10.75
2023-06-07T18:28:46.771Z,11.00
2023-06-07T18:31:14.310Z,9.50
2023-06-07T18:33:41.840Z,10.20
2023-06-07T18:36:09.317Z,9.07
2023-06-07T18:38:39.630Z,9.57
2023-06-07T18:41:07.177Z,10.20
2023-06-07T18:43:34.746Z,10.95
2023-06-07T18:46:02.457Z,11.35
2023-06-07T18:48:30.276Z,12.02
2023-06-07T18:53:25.255Z,11.25
2023-06-07T18:55:52.698Z,11.93
2023-06-07T18:58:20.302Z,11.73
2023-06-07T19:00:49.766Z,11.68
2023-06-07T19:03:17.600Z,12.00
2023-06-07T19:08:12.574Z,12.55
2023-06-07T19:10:40.049Z,12.35
2023-06-07T19:13:07.663Z,12.73
2023-06-07T19:15:35.245Z,13.40
2023-06-07T19:18:05.848Z,13.27
2023-06-07T19:20:35.210Z,13.75
2023-06-07T19:23:02.874Z,12.73
2023-06-07T19:25:30.525Z,13.48
2023-06-07T19:27:58.051Z,14.45
2023-06-07T19:30:26.208Z,15.25
2023-06-07T19:32:55.543Z,14.27
2023-06-07T19:35:24.601Z,15.20
2023-06-07T19:37:52.374Z,15.40
2023-06-07T19:42:48.238Z,14.77
2023-06-07T19:45:16.073Z,14.68
2023-06-07T19:50:11.853Z,15.52
2023-06-07T19:52:41.547Z,14.02
2023-06-07T19:55:09.631Z,14.57
2023-06-07T19:57:37.195Z,14.40
2023-06-07T20:00:05.564Z,14.27
2023-06-07T20:02:40.764Z,14.85
2023-06-07T20:05:08.695Z,14.70
2023-06-07T20:10:06.371Z,14.90
2023-06-07T20:12:34.416Z,14.38
2023-06-07T20:17:29.590Z,13.18
2023-06-07T20:20:00.915Z,14.68
2023-06-07T20:22:33.082Z,16.75
2023-06-07T20:25:03.302Z,17.13
2023-06-07T20:27:31.525Z,18.13
2023-06-07T20:29:59.642Z,15.23
2023-06-07T20:32:27.767Z,16.02
2023-06-07T20:34:56.255Z,16.52
2023-06-07T20:37:23.825Z,17.10
2023-06-07T20:39:51.323Z,16.38
2023-06-07T20:44:53.364Z,15.60
2023-06-07T20:47:22.171Z,17.20
2023-06-07T20:49:49.921Z,18.05
2023-06-07T20:52:17.358Z,17.38
2023-06-07T20:54:44.859Z,18.58
2023-06-07T20:57:12.399Z,18.58
2023-06-07T20:59:47.092Z,19.95
2023-06-07T21:02:14.530Z,19.20
2023-06-07T21:04:42.213Z,19.95
2023-06-07T21:07:09.807Z,19.73
2023-06-07T21:09:37.352Z,18.33
2023-06-07T21:12:05.196Z,21.63
2023-06-07T21:17:00.156Z,19.95
2023-06-07T21:19:27.679Z,19.83
2023-06-07T21:21:55.129Z,20.80
2023-06-07T21:24:22.483Z,21.00
2023-06-07T21:26:49.930Z,22.25
2023-06-07T21:29:17.293Z,20.52
2023-06-07T21:31:45.036Z,20.42
2023-06-07T21:36:41.307Z,21.10
2023-06-07T21:39:08.883Z,19.30
2023-06-07T21:41:36.400Z,19.70
2023-06-07T21:44:03.925Z,20.73
2023-06-07T21:46:31.398Z,20.30
2023-06-07T21:48:58.870Z,21.25
2023-06-07T21:51:26.816Z,19.17
2023-06-07T21:53:54.451Z,20.23
2023-06-07T21:56:21.903Z,20.52
2023-06-07T21:58:49.403Z,19.05
2023-06-07T22:01:16.877Z,19.77
2023-06-07T22:03:44.586Z,20.30
2023-06-07T22:06:12.912Z,20.65
2023-06-07T22:08:40.631Z,20.25
2023-06-07T22:11:08.178Z,20.83
2023-06-07T22:13:38.254Z,20.58
2023-06-07T22:16:06.254Z,20.88
2023-06-07T22:18:36.658Z,19.92
2023-06-07T22:21:04.981Z,20.70
2023-06-07T22:23:32.654Z,19.92
2023-06-07T22:26:03.155Z,20.40
2023-06-07T22:28:31.032Z,20.10
2023-06-07T22:30:59.233Z,16.85
2023-06-07T22:33:26.692Z,19.33
2023-06-07T22:35:58.461Z,19.17
2023-06-07T22:38:26.323Z,21.33
2023-06-07T22:43:21.799Z,18.38
2023-06-07T22:45:50.083Z,18.92
2023-06-07T22:48:20.103Z,19.08
2023-06-07T22:50:48.745Z,18.65
2023-06-07T22:53:16.494Z,17.30
2023-06-07T22:55:46.408Z,19.98
2023-06-07T22:58:13.916Z,20.05
2023-06-07T23:00:41.376Z,20.00
2023-06-07T23:03:09.913Z,20.02
2023-06-07T23:05:38.918Z,18.50
2023-06-07T23:08:08.334Z,20.23
2023-06-07T23:10:37.626Z,19.48
2023-06-07T23:13:10.954Z,20.75
2023-06-07T23:15:42.840Z,21.17
2023-06-07T23:18:12.256Z,22.77
2023-06-07T23:20:42.556Z,21.35
2023-06-07T23:23:13.426Z,21.83
2023-06-07T23:25:41.037Z,21.48
2023-06-07T23:28:08.908Z,21.10
2023-06-07T23:30:37.755Z,18.73
2023-06-07T23:33:07.011Z,20.15
2023-06-07T23:35:35.327Z,19.38
2023-06-07T23:38:02.807Z,16.83
2023-06-07T23:40:30.551Z,18.42
2023-06-07T23:43:01.944Z,19.15
2023-06-07T23:45:32.504Z,19.38
2023-06-07T23:48:01.232Z,19.63
2023-06-07T23:50:29.224Z,20.63
2023-06-07T23:53:01.753Z,20.15
2023-06-07T23:55:29.529Z,18.23
